Time;durP1;ratioP1;P1;durP2;ratioP2;P2;SDS_P1;SDS_P2;PMS_P1;PMS_P2;Temp;Humidity;BMP_temperature;BMP_pressure;BME280_temperature;BME280_humidity;BME280_pressure;Samples;Min_cycle;Max_cycle;Signal;HPM_P1;HPM_P2
2022/08/03 00:48:30;;;;;;;8.02;2.50;;;18.80;99.90;;;;;;5133412;27;20135;-84
2022/08/03 00:55:38;;;;;;;8.35;2.30;;;18.70;99.90;;;;;;5115750;28;20050;-84
2022/08/03 00:58:05;;;;;;;8.10;1.98;;;18.70;99.90;;;;;;5118786;28;20044;-84
2022/08/03 01:00:34;;;;;;;4.47;1.70;;;18.70;99.90;;;;;;5082899;28;20119;-83
2022/08/03 01:03:20;;;;;;;6.93;2.10;;;18.70;99.90;;;;;;5118075;28;20118;-84
2022/08/03 01:05:54;;;;;;;14.70;2.60;;;18.70;99.90;;;;;;5100387;28;20117;-84
2022/08/03 01:09:00;;;;;;;9.77;2.10;;;18.70;99.90;;;;;;5118115;28;20086;-84
2022/08/03 01:11:26;;;;;;;7.65;2.20;;;18.70;99.90;;;;;;5118019;28;20058;-84
2022/08/03 01:14:19;;;;;;;9.82;2.42;;;18.70;99.90;;;;;;5100202;28;20371;-84
2022/08/03 01:17:11;;;;;;;12.15;2.05;;;18.70;99.90;;;;;;5118710;28;20156;-83
2022/08/03 01:19:51;;;;;;;9.02;2.30;;;18.60;99.90;;;;;;5117669;28;20055;-84
2022/08/03 01:22:34;;;;;;;9.73;2.25;;;18.50;99.90;;;;;;5099684;28;20043;-85
2022/08/03 01:26:00;;;;;;;8.80;2.60;;;18.50;99.90;;;;;;5117758;28;20062;-84
2022/08/03 01:28:49;;;;;;;5.85;2.13;;;18.50;99.90;;;;;;5117960;28;20040;-84
2022/08/03 01:31:55;;;;;;;11.75;2.30;;;18.40;99.90;;;;;;5099902;28;20051;-84
2022/08/03 01:38:27;;;;;;;13.85;2.88;;;18.40;99.90;;;;;;5117257;28;20399;-84
2022/08/03 01:40:54;;;;;;;10.80;2.70;;;18.40;99.90;;;;;;5099139;28;20052;-84
2022/08/03 01:46:25;;;;;;;12.85;3.00;;;18.20;99.90;;;;;;5117302;28;20047;-84
2022/08/03 02:33:18;;;;;;;12.07;2.90;;;17.80;99.90;;;;;;5121827;27;20077;-83
2022/08/03 02:39:43;;;;;;;8.38;3.33;;;17.80;99.90;;;;;;5136624;27;20076;-84
2022/08/03 02:42:12;;;;;;;8.88;3.15;;;17.70;99.90;;;;;;5119479;27;20050;-84
2022/08/03 02:44:42;;;;;;;12.68;2.90;;;17.70;99.90;;;;;;5136431;27;20039;-84
2022/08/03 02:47:29;;;;;;;10.82;3.03;;;17.70;99.90;;;;;;5107106;27;20031;-84
2022/08/03 02:49:57;;;;;;;6.97;3.00;;;17.50;99.90;;;;;;5118715;27;20085;-84
2022/08/03 02:56:29;;;;;;;8.27;2.95;;;17.60;99.90;;;;;;5135063;27;20034;-84
2022/08/03 02:58:57;;;;;;;10.60;3.10;;;17.60;99.90;;;;;;5136732;27;20099;-84
2022/08/03 03:01:25;;;;;;;8.30;3.00;;;17.60;99.90;;;;;;5136955;27;20399;-84
2022/08/03 03:04:25;;;;;;;9.73;2.65;;;17.60;99.90;;;;;;5136413;27;20047;-84
2022/08/03 03:06:51;;;;;;;12.23;3.22;;;17.60;99.90;;;;;;5102043;27;20059;-84
2022/08/03 03:09:18;;;;;;;7.10;2.70;;;17.60;99.90;;;;;;5136800;27;20092;-84
2022/08/03 03:12:30;;;;;;;11.18;3.40;;;17.60;99.90;;;;;;5117437;27;20130;-85
2022/08/03 03:14:56;;;;;;;11.45;2.90;;;17.70;99.90;;;;;;5135982;27;20039;-84
2022/08/03 03:17:23;;;;;;;10.43;3.00;;;17.60;99.90;;;;;;5135547;27;20482;-84
2022/08/03 03:19:52;;;;;;;9.57;3.10;;;17.60;99.90;;;;;;5136321;27;20100;-84
2022/08/03 03:22:18;;;;;;;13.38;3.25;;;17.60;99.90;;;;;;5118236;27;20365;-84
2022/08/03 03:24:46;;;;;;;4.00;2.45;;;17.60;99.90;;;;;;5135624;27;20062;-84
2022/08/03 03:27:14;;;;;;;11.35;2.47;;;17.50;99.90;;;;;;5118115;27;20131;-84
2022/08/03 03:29:40;;;;;;;9.38;2.45;;;17.50;99.90;;;;;;5117419;27;20096;-84
2022/08/03 04:12:29;;;;;;;10.65;2.80;;;17.30;99.90;;;;;;5077127;28;20117;-84
2022/08/03 04:14:56;;;;;;;8.82;3.28;;;17.30;99.90;;;;;;5094143;28;20453;-84
2022/08/03 04:17:25;;;;;;;8.48;2.50;;;17.30;99.90;;;;;;5094569;28;20052;-84
2022/08/03 04:20:07;;;;;;;12.75;3.05;;;17.30;99.90;;;;;;5076565;28;20070;-84
2022/08/03 04:22:33;;;;;;;7.47;3.15;;;17.30;99.90;;;;;;5059743;28;20048;-84
2022/08/03 04:25:04;;;;;;;10.48;3.42;;;17.30;99.90;;;;;;5094623;28;20430;-84
2022/08/03 04:31:04;;;;;;;7.90;3.33;;;17.40;99.90;;;;;;5075175;28;20043;-84
2022/08/03 04:33:35;;;;;;;8.00;3.28;;;17.40;99.90;;;;;;5093939;28;20057;-84
2022/08/03 04:36:13;;;;;;;8.13;3.10;;;17.50;99.90;;;;;;5076597;28;20048;-84
2022/08/03 04:38:46;;;;;;;9.57;3.47;;;17.50;99.90;;;;;;5094167;28;20048;-84
2022/08/03 04:41:15;;;;;;;10.30;3.13;;;17.50;99.90;;;;;;5076278;28;20446;-85
2022/08/03 04:43:41;;;;;;;11.68;3.20;;;17.50;99.90;;;;;;5076460;28;20048;-84
2022/08/03 04:46:08;;;;;;;11.13;2.92;;;17.60;99.90;;;;;;5076824;28;20056;-84
2022/08/03 04:48:34;;;;;;;9.65;3.20;;;17.70;99.90;;;;;;5093700;28;20059;-84
2022/08/03 04:51:03;;;;;;;9.25;2.80;;;17.70;99.90;;;;;;5093506;28;20048;-84
2022/08/03 04:56:57;;;;;;;9.50;3.67;;;17.80;99.90;;;;;;5094440;28;20397;-84
2022/08/03 04:59:22;;;;;;;10.10;3.85;;;17.90;99.90;;;;;;5093447;28;20044;-83
2022/08/03 05:01:49;;;;;;;12.52;3.97;;;18.00;99.90;;;;;;5075521;28;20126;-84
2022/08/03 05:08:29;;;;;;;17.70;3.80;;;18.10;99.90;;;;;;5111658;28;20050;-84
2022/08/03 05:10:56;;;;;;;11.73;3.25;;;18.20;99.90;;;;;;5095469;28;20130;-84
2022/08/03 05:13:21;;;;;;;15.75;4.00;;;18.30;99.90;;;;;;5113692;28;20131;-84
2022/08/03 05:16:17;;;;;;;10.02;3.45;;;18.30;99.90;;;;;;5113484;28;20138;-84
2022/08/03 05:18:44;;;;;;;13.57;3.58;;;18.40;99.90;;;;;;5113400;28;20051;-83
2022/08/03 05:21:12;;;;;;;16.95;3.97;;;18.50;99.90;;;;;;5113488;28;20051;-82
2022/08/03 05:23:38;;;;;;;10.35;3.50;;;18.50;99.90;;;;;;5113803;28;20048;-84
2022/08/03 05:26:04;;;;;;;12.27;3.55;;;18.60;99.90;;;;;;5114017;28;20083;-83
2022/08/03 05:28:30;;;;;;;12.68;4.00;;;18.70;99.90;;;;;;5095436;28;20087;-83
2022/08/03 05:30:56;;;;;;;15.40;3.63;;;18.80;99.90;;;;;;5113628;28;20044;-83
2022/08/03 05:33:21;;;;;;;12.85;3.13;;;18.80;99.90;;;;;;5113264;28;20138;-84
2022/08/03 05:39:39;;;;;;;10.80;3.58;;;19.00;99.90;;;;;;5113179;28;20042;-83
2022/08/03 05:42:04;;;;;;;17.05;4.25;;;19.00;99.90;;;;;;5097725;28;20108;-84
2022/08/03 05:44:30;;;;;;;10.45;3.53;;;19.10;99.90;;;;;;5116828;28;20047;-83
2022/08/03 05:46:57;;;;;;;7.60;3.13;;;19.20;99.90;;;;;;5098556;28;20469;-82
2022/08/03 05:49:22;;;;;;;14.07;4.25;;;19.20;99.90;;;;;;5098697;28;20079;-83
2022/08/03 05:51:48;;;;;;;12.05;3.40;;;19.30;99.90;;;;;;5098946;28;20108;-84
2022/08/03 05:54:14;;;;;;;13.32;3.60;;;19.30;99.90;;;;;;5098905;28;20054;-82
2022/08/03 05:56:42;;;;;;;8.68;3.22;;;19.40;99.90;;;;;;5116323;28;20051;-83
2022/08/03 05:59:08;;;;;;;12.98;4.30;;;19.50;99.90;;;;;;5115998;28;20043;-83
2022/08/03 06:01:34;;;;;;;16.02;3.92;;;19.50;99.90;;;;;;5116482;28;20595;-83
2022/08/03 06:03:59;;;;;;;16.50;3.55;;;19.60;99.90;;;;;;5098489;28;20469;-82
2022/08/03 06:06:25;;;;;;;14.35;3.95;;;19.70;99.90;;;;;;5115980;28;20123;-83
2022/08/03 06:08:51;;;;;;;13.88;3.80;;;19.80;99.90;;;;;;5116330;28;20469;-83
2022/08/03 06:11:17;;;;;;;12.55;3.88;;;19.90;99.90;;;;;;5098601;28;20062;-83
2022/08/03 06:13:43;;;;;;;13.95;3.95;;;19.90;99.90;;;;;;5098359;28;20051;-82
2022/08/03 06:16:09;;;;;;;14.50;4.22;;;20.00;99.90;;;;;;5115672;28;20094;-83
2022/08/03 06:18:35;;;;;;;17.67;4.30;;;20.10;99.90;;;;;;5116046;28;20500;-83
2022/08/03 06:21:01;;;;;;;10.68;4.13;;;20.20;99.90;;;;;;5098248;28;20051;-83
2022/08/03 06:23:27;;;;;;;14.88;4.22;;;20.30;99.90;;;;;;5097947;28;20082;-83
2022/08/03 06:25:52;;;;;;;12.48;3.92;;;20.40;99.90;;;;;;5115936;28;20102;-82
2022/08/03 06:28:18;;;;;;;13.80;4.00;;;20.40;99.90;;;;;;5097740;28;20067;-83
2022/08/03 06:30:44;;;;;;;10.27;3.88;;;20.40;99.90;;;;;;5097444;28;20055;-84
2022/08/03 06:33:10;;;;;;;9.38;3.72;;;20.50;99.90;;;;;;5096826;28;20043;-84
2022/08/03 06:35:35;;;;;;;18.08;3.97;;;20.50;99.90;;;;;;5097704;28;20054;-83
2022/08/03 06:38:01;;;;;;;13.32;3.80;;;20.60;99.90;;;;;;5115732;28;20075;-83
2022/08/03 06:40:31;;;;;;;14.02;3.85;;;20.70;99.90;;;;;;5115475;28;20048;-83
2022/08/03 06:43:01;;;;;;;12.65;3.90;;;20.80;99.90;;;;;;5097578;28;20154;-84
2022/08/03 06:45:27;;;;;;;11.80;3.60;;;20.80;99.90;;;;;;5115035;28;20083;-83
2022/08/03 06:48:05;;;;;;;13.30;3.88;;;20.90;99.90;;;;;;5115578;28;20039;-82
2022/08/03 06:50:31;;;;;;;18.08;4.28;;;20.80;99.90;;;;;;5096813;28;20039;-84
2022/08/03 06:52:57;;;;;;;15.40;3.80;;;20.80;99.90;;;;;;5096636;28;20047;-82
2022/08/03 06:55:23;;;;;;;13.25;4.15;;;20.80;99.90;;;;;;5051678;28;20125;-83
2022/08/03 06:57:49;;;;;;;14.35;3.70;;;20.90;99.90;;;;;;5052249;28;20609;-84
2022/08/03 07:00:15;;;;;;;16.77;3.50;;;20.90;99.90;;;;;;5052214;28;20048;-84
2022/08/03 07:02:40;;;;;;;13.00;3.72;;;20.90;99.90;;;;;;5035323;28;20059;-83
2022/08/03 07:05:08;;;;;;;13.38;3.75;;;21.00;99.90;;;;;;5051930;28;20468;-83
2022/08/03 07:07:34;;;;;;;11.00;3.83;;;21.10;99.90;;;;;;5051642;28;20053;-84
2022/08/03 07:10:00;;;;;;;21.20;3.92;;;21.30;99.90;;;;;;5051658;28;20110;-83
2022/08/03 07:12:26;;;;;;;7.18;2.22;;;21.30;99.90;;;;;;5051804;28;20127;-84
2022/08/03 07:14:53;;;;;;;17.52;3.65;;;21.40;99.90;;;;;;5018564;28;20367;-84
2022/08/03 07:17:18;;;;;;;16.45;3.75;;;21.40;99.90;;;;;;5018206;28;20520;-83
2022/08/03 07:19:44;;;;;;;13.40;3.88;;;21.50;99.90;;;;;;5051861;28;20135;-83
2022/08/03 07:22:10;;;;;;;20.17;3.97;;;21.50;99.90;;;;;;5035146;28;20132;-83
2022/08/03 07:24:36;;;;;;;13.63;3.92;;;21.70;99.90;;;;;;5035394;28;20057;-83
2022/08/03 07:27:01;;;;;;;13.85;3.28;;;21.80;99.90;;;;;;5084496;28;20047;-84
2022/08/03 07:29:27;;;;;;;14.43;3.60;;;22.10;99.90;;;;;;5093844;28;20520;-83
2022/08/03 07:31:55;;;;;;;16.25;3.58;;;22.40;99.90;;;;;;5075519;28;20055;-84
2022/08/03 07:34:21;;;;;;;14.38;3.30;;;22.50;99.90;;;;;;5094012;28;20247;-83
2022/08/03 07:36:47;;;;;;;16.48;3.47;;;22.50;99.90;;;;;;5094917;28;20124;-87
2022/08/03 07:39:12;;;;;;;14.48;2.83;;;22.50;99.90;;;;;;5077013;28;20385;-81
2022/08/03 07:41:38;;;;;;;15.60;3.78;;;22.50;99.90;;;;;;5094283;28;20052;-84
2022/08/03 07:44:04;;;;;;;17.77;4.20;;;22.60;99.90;;;;;;5076174;28;20400;-82
2022/08/03 07:46:29;;;;;;;11.85;3.63;;;22.70;99.90;;;;;;5093316;28;20040;-84
2022/08/03 07:48:55;;;;;;;15.35;3.00;;;22.80;99.90;;;;;;5094066;28;20220;-83
2022/08/03 07:51:21;;;;;;;16.15;3.10;;;23.00;99.90;;;;;;5076507;28;20493;-84
2022/08/03 07:53:46;;;;;;;14.85;2.90;;;23.30;99.90;;;;;;5093651;28;20051;-83
2022/08/03 07:56:12;;;;;;;15.52;3.20;;;23.90;99.90;;;;;;5075559;28;20489;-84
2022/08/03 07:58:38;;;;;;;15.07;3.17;;;24.40;99.90;;;;;;5093309;28;20056;-83
2022/08/03 08:01:03;;;;;;;13.57;3.10;;;24.80;99.90;;;;;;5093395;28;20116;-84
2022/08/03 08:03:29;;;;;;;13.15;2.92;;;25.50;99.90;;;;;;5075533;28;20052;-84
2022/08/03 08:05:54;;;;;;;17.60;3.42;;;26.20;99.90;;;;;;5075254;28;20056;-82
2022/08/03 08:08:20;;;;;;;18.50;3.42;;;26.80;99.90;;;;;;5092979;28;20384;-83
2022/08/03 08:10:47;;;;;;;12.15;3.08;;;27.30;99.90;;;;;;5075116;28;20084;-83
2022/08/03 08:13:12;;;;;;;17.15;3.17;;;27.70;99.90;;;;;;5093078;28;20079;-85
2022/08/03 08:15:38;;;;;;;14.82;3.15;;;28.20;99.90;;;;;;5093122;28;20089;-83
2022/08/03 08:18:04;;;;;;;16.30;3.40;;;28.70;99.90;;;;;;5092767;28;20047;-83
2022/08/03 08:20:33;;;;;;;12.98;3.63;;;29.20;99.90;;;;;;5093201;28;20457;-83
2022/08/03 08:23:00;;;;;;;13.32;3.15;;;29.50;99.90;;;;;;5093033;28;20450;-85
2022/08/03 08:25:26;;;;;;;13.98;2.72;;;29.90;96.40;;;;;;5075209;28;20114;-83
2022/08/03 08:27:52;;;;;;;18.70;3.22;;;30.20;92.60;;;;;;5093090;28;20044;-83
2022/08/03 08:30:20;;;;;;;16.90;3.60;;;30.50;87.90;;;;;;5074991;28;20036;-83
2022/08/03 08:32:46;;;;;;;18.10;3.42;;;30.60;84.50;;;;;;5092767;28;20050;-83
2022/08/03 08:35:12;;;;;;;15.88;3.35;;;31.00;82.20;;;;;;5093012;28;20091;-83
2022/08/03 08:37:39;;;;;;;15.93;2.85;;;31.30;77.70;;;;;;5074645;28;20087;-84
2022/08/03 08:40:06;;;;;;;15.35;3.22;;;31.40;75.40;;;;;;5093192;28;20575;-84
2022/08/03 08:42:32;;;;;;;15.57;3.17;;;31.40;73.60;;;;;;5092792;28;20504;-84
2022/08/03 08:44:59;;;;;;;14.00;3.17;;;31.50;74.80;;;;;;5093444;28;20059;-84
2022/08/03 08:47:29;;;;;;;14.18;2.90;;;31.60;75.00;;;;;;5092550;28;20149;-83
2022/08/03 08:49:57;;;;;;;12.82;2.90;;;31.70;74.70;;;;;;5074054;28;20046;-83
2022/08/03 08:52:28;;;;;;;14.65;3.22;;;32.00;72.50;;;;;;5092741;28;20082;-82
2022/08/03 08:54:57;;;;;;;15.38;2.67;;;32.10;68.90;;;;;;5092636;28;20052;-83
2022/08/03 08:57:45;;;;;;;16.38;2.90;;;32.00;69.50;;;;;;5092512;28;20048;-85
2022/08/03 09:00:14;;;;;;;11.25;2.80;;;32.10;72.00;;;;;;5074712;28;20060;-84
2022/08/03 09:02:41;;;;;;;17.50;3.88;;;32.50;66.90;;;;;;5092606;28;20397;-84
2022/08/03 09:05:12;;;;;;;14.82;3.00;;;32.80;66.70;;;;;;5075840;28;20054;-85
2022/08/03 09:07:38;;;;;;;12.25;3.28;;;33.10;64.40;;;;;;5094508;28;20052;-84
2022/08/03 09:10:07;;;;;;;13.57;3.00;;;33.30;63.10;;;;;;5093929;28;20051;-85
2022/08/03 09:12:43;;;;;;;14.90;2.90;;;33.50;63.20;;;;;;5112872;28;20175;-84
2022/08/03 09:15:21;;;;;;;13.98;3.20;;;33.70;61.40;;;;;;5113245;28;20434;-83
2022/08/03 09:17:49;;;;;;;16.05;3.08;;;34.20;62.60;;;;;;5098839;28;20083;-84
2022/08/03 09:20:15;;;;;;;12.35;3.00;;;34.60;59.30;;;;;;5117123;28;20101;-85
2022/08/03 09:22:54;;;;;;;14.05;2.65;;;34.80;57.90;;;;;;5098732;28;20481;-85
2022/08/03 09:25:28;;;;;;;16.75;3.05;;;34.70;59.70;;;;;;5116003;28;20140;-83
2022/08/03 09:28:02;;;;;;;11.70;2.50;;;34.70;57.40;;;;;;5116785;28;20357;-82
2022/08/03 09:30:28;;;;;;;17.40;3.13;;;34.60;57.70;;;;;;5116705;28;20062;-83
2022/08/03 09:33:01;;;;;;;18.25;3.33;;;34.60;58.60;;;;;;5116674;28;20044;-85
2022/08/03 09:35:27;;;;;;;17.48;3.08;;;35.00;56.90;;;;;;5098226;28;20400;-84
2022/08/03 09:38:16;;;;;;;14.23;2.47;;;35.30;57.20;;;;;;5116577;28;20051;-84
2022/08/03 09:40:43;;;;;;;14.25;2.95;;;35.70;57.00;;;;;;5116518;28;20055;-85
2022/08/03 09:43:09;;;;;;;13.63;3.40;;;36.10;55.40;;;;;;5116328;28;20133;-84
2022/08/03 09:45:37;;;;;;;17.63;3.40;;;36.40;54.80;;;;;;5098200;28;20051;-84
2022/08/03 09:48:25;;;;;;;14.98;2.85;;;36.80;53.70;;;;;;5097641;28;20060;-83
2022/08/03 09:51:02;;;;;;;13.30;3.03;;;37.10;52.00;;;;;;5098037;28;20104;-84
2022/08/03 09:53:28;;;;;;;20.88;3.42;;;36.70;52.00;;;;;;5116441;28;20476;-84
2022/08/03 09:55:59;;;;;;;17.08;3.63;;;36.40;53.00;;;;;;5098004;28;20126;-83
2022/08/03 09:58:27;;;;;;;13.85;2.95;;;36.50;51.60;;;;;;5079962;28;20081;-84
2022/08/03 10:00:53;;;;;;;12.80;2.55;;;36.60;51.70;;;;;;5097830;28;20385;-86
2022/08/03 10:03:19;;;;;;;20.65;3.80;;;36.70;52.20;;;;;;5081362;28;20047;-84
2022/08/03 10:05:45;;;;;;;15.80;2.97;;;37.00;51.50;;;;;;5115898;28;20043;-85
2022/08/03 10:08:15;;;;;;;16.33;3.00;;;37.30;51.50;;;;;;5097685;28;20058;-83
2022/08/03 10:10:42;;;;;;;;;;;37.40;50.30;;;;;;5098206;28;20422;-85
2022/08/03 10:13:07;;;;;;;17.70;3.40;;;37.40;49.80;;;;;;5097733;28;19951;-83
2022/08/03 10:15:33;;;;;;;13.02;3.00;;;37.30;50.70;;;;;;5115633;28;20051;-84
2022/08/03 10:17:59;;;;;;;20.52;3.20;;;37.20;50.20;;;;;;5080753;28;20465;-84
2022/08/03 10:20:25;;;;;;;17.85;3.05;;;37.30;50.30;;;;;;5080974;28;20055;-84
2022/08/03 10:22:51;;;;;;;11.82;3.08;;;37.30;51.10;;;;;;5115617;28;20051;-85
2022/08/03 10:25:17;;;;;;;12.55;3.83;;;37.60;50.90;;;;;;5097640;28;20128;-94
2022/08/03 10:27:48;;;;;;;17.00;3.13;;;37.90;49.00;;;;;;5114158;28;20044;-84
2022/08/03 10:30:14;;;;;;;13.32;2.85;;;38.10;48.10;;;;;;5115128;28;20489;-86
2022/08/03 10:32:42;;;;;;;14.70;3.58;;;37.90;47.70;;;;;;5115660;28;20043;-86
2022/08/03 10:35:12;;;;;;;15.82;3.17;;;37.90;48.20;;;;;;5080594;28;20051;-86
2022/08/03 10:37:42;;;;;;;;;;;38.10;48.00;;;;;;5097330;28;20051;-85
2022/08/03 10:40:13;;;;;;;20.75;3.08;;;38.20;48.60;;;;;;5115357;28;19930;-83
2022/08/03 10:42:41;;;;;;;14.52;3.28;;;38.10;48.30;;;;;;5080366;28;20465;-86
2022/08/03 10:45:18;;;;;;;14.25;3.13;;;38.30;47.80;;;;;;5096999;28;20052;-86
2022/08/03 10:47:45;;;;;;;14.85;3.05;;;38.30;47.60;;;;;;5115293;28;20109;-85
2022/08/03 10:50:11;;;;;;;13.43;2.88;;;38.40;47.60;;;;;;5114987;28;20091;-85
2022/08/03 10:52:55;;;;;;;19.90;3.75;;;38.50;47.60;;;;;;5114901;28;20040;-84
2022/08/03 10:58:35;;;;;;;16.08;3.03;;;38.90;46.50;;;;;;5115036;28;20047;-85
2022/08/03 11:01:01;;;;;;;13.95;2.90;;;39.20;47.20;;;;;;5114577;28;20043;-85
2022/08/03 11:03:26;;;;;;;15.52;3.00;;;39.50;46.10;;;;;;5096911;28;20058;-84
2022/08/03 11:05:53;;;;;;;15.30;3.08;;;39.90;45.20;;;;;;5114628;28;20086;-87
2022/08/03 11:08:20;;;;;;;13.40;2.88;;;39.90;44.70;;;;;;5096346;28;20055;-85
2022/08/03 11:10:47;;;;;;;17.83;3.67;;;39.60;45.20;;;;;;5115095;28;20052;-85
2022/08/03 11:13:18;;;;;;;13.70;3.28;;;39.60;44.50;;;;;;5114700;28;20048;-85
2022/08/03 11:15:46;;;;;;;21.35;3.53;;;39.60;44.60;;;;;;5114915;28;20074;-82
2022/08/03 11:18:13;;;;;;;12.07;3.28;;;39.40;43.90;;;;;;5095808;28;20142;-85
2022/08/03 11:20:48;;;;;;;17.00;3.40;;;39.50;43.70;;;;;;5096093;28;20055;-83
2022/08/03 11:23:15;;;;;;;20.88;3.20;;;39.40;42.90;;;;;;5114374;28;20043;-84
2022/08/03 11:26:16;;;;;;;16.85;3.10;;;39.20;44.20;;;;;;5114451;28;20045;-84
2022/08/03 11:28:46;;;;;;;15.93;3.65;;;39.20;44.20;;;;;;5079371;28;20055;-86
2022/08/03 11:31:21;;;;;;;14.52;2.97;;;39.20;43.90;;;;;;5114342;28;20059;-83
2022/08/03 11:34:10;;;;;;;16.38;3.30;;;39.30;43.40;;;;;;5114405;28;20098;-90
2022/08/03 11:37:13;;;;;;;13.18;2.90;;;39.00;43.60;;;;;;5095678;28;20043;-85
2022/08/03 11:39:45;;;;;;;20.23;2.90;;;38.70;45.90;;;;;;5095336;28;20055;-86
2022/08/03 11:42:23;;;;;;;13.27;3.05;;;39.00;45.50;;;;;;5096381;28;20461;-83
2022/08/03 11:44:50;;;;;;;18.50;3.38;;;39.30;43.90;;;;;;5114502;28;20051;-85
2022/08/03 11:47:17;;;;;;;14.90;3.20;;;39.50;43.50;;;;;;5114236;28;20093;-84
2022/08/03 11:50:01;;;;;;;14.82;2.78;;;39.50;43.60;;;;;;5096085;28;20419;-87
2022/08/03 11:52:33;;;;;;;18.02;3.35;;;39.70;43.90;;;;;;5114028;28;20079;-84
2022/08/03 11:54:58;;;;;;;18.63;3.38;;;39.90;42.60;;;;;;5096113;28;20100;-86
2022/08/03 11:57:31;;;;;;;16.70;3.25;;;39.90;43.30;;;;;;5114044;28;20415;-92
2022/08/03 11:59:57;;;;;;;24.10;3.40;;;39.90;42.70;;;;;;5095710;28;20127;-86
2022/08/03 12:02:23;;;;;;;18.73;4.25;;;40.00;41.90;;;;;;5113703;28;20131;-87
2022/08/03 12:05:01;;;;;;;21.52;3.42;;;40.10;41.90;;;;;;5095969;28;20516;-84
2022/08/03 12:07:31;;;;;;;18.67;3.28;;;40.10;42.60;;;;;;5113656;28;20043;-86
2022/08/03 12:10:13;;;;;;;18.45;3.60;;;39.90;42.60;;;;;;5113956;28;20134;-84
2022/08/03 12:12:41;;;;;;;19.73;3.00;;;39.90;42.60;;;;;;5113531;28;20488;-85
2022/08/03 12:15:08;;;;;;;11.98;3.10;;;39.30;43.10;;;;;;5113493;28;20471;-87
2022/08/03 12:17:39;;;;;;;17.05;3.22;;;38.80;44.30;;;;;;5113105;28;20128;-86
2022/08/03 12:20:07;;;;;;;16.25;3.38;;;37.90;45.10;;;;;;5078784;28;20101;-86
2022/08/03 12:22:36;;;;;;;15.30;3.30;;;37.00;46.50;;;;;;5095643;28;20073;-86
2022/08/03 12:25:02;;;;;;;13.13;2.88;;;36.50;47.00;;;;;;5113471;28;20132;-84
2022/08/03 12:27:30;;;;;;;12.55;2.90;;;36.30;47.20;;;;;;5113786;28;20040;-84
2022/08/03 12:29:57;;;;;;;11.55;2.95;;;35.80;47.20;;;;;;5095319;28;20051;-86
2022/08/03 12:32:27;;;;;;;13.55;2.70;;;35.60;47.90;;;;;;5095982;28;20043;-85
2022/08/03 12:35:05;;;;;;;15.98;2.72;;;35.50;49.10;;;;;;5095571;28;20051;-85
2022/08/03 12:37:31;;;;;;;7.63;2.10;;;35.20;48.50;;;;;;5113461;28;20132;-85
2022/08/03 12:40:00;;;;;;;12.07;3.00;;;34.80;48.70;;;;;;5113356;28;20490;-86
2022/08/03 12:42:36;;;;;;;14.47;3.10;;;34.30;49.90;;;;;;5113539;28;20047;-88
2022/08/03 12:45:25;;;;;;;13.85;2.80;;;34.10;51.30;;;;;;5113793;28;20400;-86
2022/08/03 12:48:01;;;;;;;12.97;3.10;;;33.90;52.10;;;;;;5113437;28;20054;-84
2022/08/03 12:50:35;;;;;;;10.52;2.80;;;33.60;52.80;;;;;;5113141;28;20130;-84
2022/08/03 12:53:04;;;;;;;16.00;2.80;;;33.70;52.70;;;;;;5098832;28;20493;-87
2022/08/03 12:55:33;;;;;;;15.88;2.75;;;33.80;52.40;;;;;;5099328;28;20055;-87
2022/08/03 12:58:04;;;;;;;14.65;3.30;;;34.00;51.30;;;;;;5117335;28;20079;-84
2022/08/03 13:00:30;;;;;;;10.23;2.80;;;34.10;50.50;;;;;;5117106;28;20047;-86
2022/08/03 13:03:00;;;;;;;13.43;2.63;;;34.40;50.50;;;;;;5098654;28;20477;-85
2022/08/03 13:05:26;;;;;;;10.50;2.58;;;34.30;49.80;;;;;;5099524;28;20047;-86
2022/08/03 13:07:52;;;;;;;14.25;2.80;;;33.90;50.60;;;;;;5117155;28;20054;-85
2022/08/03 13:10:29;;;;;;;14.88;2.78;;;33.60;50.70;;;;;;5117589;28;20083;-87
2022/08/03 13:12:57;;;;;;;16.85;2.63;;;33.50;51.40;;;;;;5117229;28;20433;-86
2022/08/03 13:15:25;;;;;;;11.35;2.55;;;33.20;51.40;;;;;;5117010;28;20051;-84
2022/08/03 13:17:51;;;;;;;13.00;2.22;;;32.80;52.10;;;;;;5116880;28;20043;-84
2022/08/03 13:20:17;;;;;;;14.02;2.33;;;32.60;53.90;;;;;;5116557;28;20055;-85
2022/08/03 13:22:46;;;;;;;13.93;2.95;;;32.40;53.10;;;;;;5117065;28;20047;-85
2022/08/03 13:25:11;;;;;;;11.60;2.07;;;32.30;52.50;;;;;;5099034;28;20095;-84
2022/08/03 13:27:37;;;;;;;15.20;2.38;;;32.10;52.80;;;;;;5133038;27;20059;-85
2022/08/03 13:30:03;;;;;;;11.38;2.25;;;32.00;53.50;;;;;;5098773;28;20047;-84
2022/08/03 13:32:29;;;;;;;13.95;2.88;;;32.00;53.70;;;;;;5098179;28;20396;-85
2022/08/03 13:34:55;;;;;;;12.80;2.70;;;31.80;53.80;;;;;;5116479;28;20047;-86
2022/08/03 13:37:20;;;;;;;16.80;3.13;;;31.80;54.40;;;;;;5098400;28;20176;-84
2022/08/03 13:39:46;;;;;;;11.48;2.38;;;31.80;54.00;;;;;;5116747;28;20052;-84
2022/08/03 13:42:12;;;;;;;11.40;2.08;;;31.70;53.40;;;;;;5116759;28;20052;-82
2022/08/03 13:44:37;;;;;;;11.00;2.28;;;31.60;53.30;;;;;;5116975;28;20047;-86
2022/08/03 13:47:03;;;;;;;12.23;2.22;;;31.50;55.70;;;;;;5116634;28;20433;-85
2022/08/03 13:49:29;;;;;;;10.98;2.38;;;31.60;56.50;;;;;;5097982;28;20088;-86
2022/08/03 13:51:56;;;;;;;11.48;2.72;;;31.70;55.80;;;;;;5098160;28;20035;-85
2022/08/03 13:54:22;;;;;;;14.32;2.55;;;31.90;55.30;;;;;;5081544;28;20392;-85
2022/08/03 13:56:54;;;;;;;11.77;2.35;;;32.00;54.20;;;;;;5116321;28;20471;-83
2022/08/03 13:59:24;;;;;;;13.38;2.60;;;32.10;54.50;;;;;;5116109;28;20078;-86
2022/08/03 14:01:51;;;;;;;11.98;2.35;;;32.10;54.30;;;;;;5097500;28;20055;-83
2022/08/03 14:04:17;;;;;;;13.55;2.17;;;32.20;53.00;;;;;;5115885;28;20173;-84
2022/08/03 14:06:44;;;;;;;11.05;2.38;;;32.20;54.40;;;;;;5097538;28;20047;-85
2022/08/03 14:09:10;;;;;;;16.08;2.60;;;32.20;52.80;;;;;;5097934;28;20047;-85
2022/08/03 14:11:36;;;;;;;9.68;2.05;;;32.10;54.10;;;;;;5115744;28;20055;-83
2022/08/03 14:14:01;;;;;;;9.80;2.20;;;32.20;53.50;;;;;;5115882;28;20062;-85
2022/08/03 14:16:27;;;;;;;12.20;2.28;;;32.20;54.20;;;;;;5097542;28;20043;-85
2022/08/03 14:18:53;;;;;;;15.35;2.63;;;32.10;54.10;;;;;;5115570;28;20047;-85
2022/08/03 14:21:18;;;;;;;9.65;2.20;;;32.20;54.00;;;;;;5115468;28;20388;-86
2022/08/03 14:23:44;;;;;;;11.07;1.98;;;32.20;55.50;;;;;;5097602;28;20055;-85
2022/08/03 14:26:10;;;;;;;12.93;2.50;;;32.30;55.90;;;;;;5097720;28;20040;-86
2022/08/03 14:28:36;;;;;;;9.52;2.00;;;32.30;56.40;;;;;;5097618;28;20083;-86
2022/08/03 14:31:03;;;;;;;7.75;1.83;;;32.40;54.50;;;;;;5115520;28;20094;-84
2022/08/03 14:33:28;;;;;;;13.65;2.03;;;32.60;52.70;;;;;;5097769;28;20459;-83
2022/08/03 14:36:12;;;;;;;10.05;1.92;;;32.70;51.70;;;;;;5115335;28;20087;-85
2022/08/03 14:38:39;;;;;;;12.07;2.55;;;32.70;51.30;;;;;;5097049;28;20108;-86
2022/08/03 14:41:05;;;;;;;8.68;2.42;;;32.60;51.10;;;;;;5097410;28;20076;-85
2022/08/03 14:43:30;;;;;;;10.48;2.20;;;32.60;51.90;;;;;;5097337;28;20493;-85
2022/08/03 14:45:56;;;;;;;13.90;2.53;;;32.60;50.70;;;;;;5097252;28;20108;-86
2022/08/03 14:48:23;;;;;;;11.40;2.20;;;32.50;49.80;;;;;;5115046;28;20043;-85
2022/08/03 14:50:51;;;;;;;9.70;2.22;;;32.80;50.00;;;;;;5096844;28;20047;-84
2022/08/03 14:53:17;;;;;;;12.85;2.22;;;33.20;50.00;;;;;;5115173;28;20054;-86
2022/08/03 14:55:44;;;;;;;7.78;1.85;;;33.40;49.10;;;;;;5115020;28;20545;-85
2022/08/03 14:58:10;;;;;;;8.77;2.03;;;33.50;47.70;;;;;;5097622;28;20051;-86
2022/08/03 15:00:36;;;;;;;8.98;2.28;;;33.50;47.40;;;;;;5115539;28;20047;-82
2022/08/03 15:03:03;;;;;;;7.50;1.88;;;33.80;48.50;;;;;;5115156;28;20047;-86
2022/08/03 15:05:50;;;;;;;8.90;1.70;;;34.30;48.90;;;;;;5114756;28;20085;-84
2022/08/03 15:08:16;;;;;;;8.65;1.65;;;34.80;47.00;;;;;;5096857;28;20051;-87
2022/08/03 15:10:42;;;;;;;8.48;1.85;;;35.00;47.50;;;;;;5115286;28;20050;-86
2022/08/03 15:13:08;;;;;;;8.85;2.25;;;35.20;46.10;;;;;;5114706;28;20365;-84
2022/08/03 15:15:33;;;;;;;11.25;2.80;;;35.30;45.60;;;;;;5095745;28;20117;-85
2022/08/03 15:17:59;;;;;;;7.60;1.83;;;35.20;45.20;;;;;;5113924;28;20476;-87
2022/08/03 15:20:25;;;;;;;7.10;2.05;;;35.10;45.80;;;;;;5114829;28;20124;-85
2022/08/03 15:22:50;;;;;;;7.45;1.75;;;35.10;46.60;;;;;;5114698;28;20492;-85
2022/08/03 15:25:16;;;;;;;7.25;1.70;;;35.00;46.00;;;;;;5114566;28;20112;-85
2022/08/03 15:27:41;;;;;;;4.75;1.50;;;34.80;47.30;;;;;;5096113;28;20047;-86
2022/08/03 15:30:08;;;;;;;3.92;1.73;;;34.80;47.10;;;;;;5114783;28;20101;-86
2022/08/03 15:32:34;;;;;;;5.85;1.95;;;35.10;46.90;;;;;;5114811;28;20083;-85
2022/08/03 15:35:00;;;;;;;6.57;1.50;;;35.40;45.50;;;;;;5115073;28;20087;-86
2022/08/03 15:37:26;;;;;;;5.95;1.67;;;35.60;45.90;;;;;;5096474;28;20051;-86
2022/08/03 15:39:52;;;;;;;7.65;1.95;;;35.70;45.90;;;;;;5115001;28;20051;-87
2022/08/03 15:42:18;;;;;;;3.42;2.00;;;35.70;45.10;;;;;;5095638;28;20130;-84